sensor_id;sensor_type;location;lat;lon;timestamp;P1;durP1;ratioP1;P2;durP2;ratioP2
69207;SDS011;56321;47.662;8.878;2022-08-01T00:00:00;5.28;;;2.20;;
69207;SDS011;56321;47.662;8.878;2022-08-01T00:02:27;6.03;;;2.30;;
69207;SDS011;56321;47.662;8.878;2022-08-01T00:04:54;6.90;;;2.05;;
69207;SDS011;56321;47.662;8.878;2022-08-01T00:07:19;5.47;;;2.10;;
69207;SDS011;56321;47.662;8.878;2022-08-01T00:09:45;5.10;;;2.00;;
69207;SDS011;56321;47.662;8.878;2022-08-01T00:12:10;5.73;;;2.00;;
69207;SDS011;56321;47.662;8.878;2022-08-01T00:14:36;4.93;;;1.90;;
69207;SDS011;56321;47.662;8.878;2022-08-01T00:17:01;6.43;;;1.87;;
69207;SDS011;56321;47.662;8.878;2022-08-01T00:19:27;5.35;;;2.10;;
69207;SDS011;56321;47.662;8.878;2022-08-01T00:21:53;6.00;;;1.97;;
69207;SDS011;56321;47.662;8.878;2022-08-01T00:24:18;4.80;;;1.83;;
69207;SDS011;56321;47.662;8.878;2022-08-01T00:26:43;5.65;;;1.92;;
69207;SDS011;56321;47.662;8.878;2022-08-01T00:29:09;7.07;;;2.00;;
69207;SDS011;56321;47.662;8.878;2022-08-01T00:31:34;5.10;;;1.90;;
69207;SDS011;56321;47.662;8.878;2022-08-01T00:33:59;5.77;;;1.93;;
69207;SDS011;56321;47.662;8.878;2022-08-01T00:36:25;5.00;;;1.90;;
69207;SDS011;56321;47.662;8.878;2022-08-01T00:38:50;6.15;;;1.95;;
69207;SDS011;56321;47.662;8.878;2022-08-01T00:41:16;6.20;;;2.33;;
69207;SDS011;56321;47.662;8.878;2022-08-01T00:43:41;5.53;;;2.17;;
69207;SDS011;56321;47.662;8.878;2022-08-01T00:46:06;6.30;;;1.90;;
69207;SDS011;56321;47.662;8.878;2022-08-01T00:48:32;6.13;;;2.00;;
69207;SDS011;56321;47.662;8.878;2022-08-01T00:50:57;5.23;;;2.00;;
69207;SDS011;56321;47.662;8.878;2022-08-01T00:53:23;6.33;;;2.03;;
69207;SDS011;56321;47.662;8.878;2022-08-01T00:55:50;7.13;;;1.73;;
69207;SDS011;56321;47.662;8.878;2022-08-01T00:58:15;5.83;;;2.10;;
69207;SDS011;56321;47.662;8.878;2022-08-01T01:00:41;5.90;;;2.00;;
69207;SDS011;56321;47.662;8.878;2022-08-01T01:03:06;5.43;;;1.90;;
69207;SDS011;56321;47.662;8.878;2022-08-01T01:05:36;6.60;;;2.13;;
69207;SDS011;56321;47.662;8.878;2022-08-01T01:08:22;5.72;;;1.98;;
69207;SDS011;56321;47.662;8.878;2022-08-01T01:10:54;6.40;;;2.20;;
69207;SDS011;56321;47.662;8.878;2022-08-01T01:13:26;6.35;;;2.00;;
69207;SDS011;56321;47.662;8.878;2022-08-01T01:16:01;7.68;;;2.20;;
69207;SDS011;56321;47.662;8.878;2022-08-01T01:18:46;5.43;;;1.90;;
69207;SDS011;56321;47.662;8.878;2022-08-01T01:24:00;6.13;;;1.97;;
69207;SDS011;56321;47.662;8.878;2022-08-01T01:26:47;5.68;;;1.90;;
69207;SDS011;56321;47.662;8.878;2022-08-01T01:29:38;5.88;;;1.95;;
69207;SDS011;56321;47.662;8.878;2022-08-01T01:32:23;5.20;;;2.00;;
69207;SDS011;56321;47.662;8.878;2022-08-01T01:35:01;5.40;;;2.00;;
69207;SDS011;56321;47.662;8.878;2022-08-01T01:37:32;5.67;;;1.87;;
69207;SDS011;56321;47.662;8.878;2022-08-01T01:40:00;6.18;;;2.13;;
69207;SDS011;56321;47.662;8.878;2022-08-01T01:42:27;6.82;;;1.90;;
69207;SDS011;56321;47.662;8.878;2022-08-01T01:44:54;5.05;;;1.70;;
69207;SDS011;56321;47.662;8.878;2022-08-01T01:47:21;6.82;;;2.20;;
69207;SDS011;56321;47.662;8.878;2022-08-01T01:49:47;6.00;;;1.90;;
69207;SDS011;56321;47.662;8.878;2022-08-01T01:52:15;5.40;;;1.90;;
69207;SDS011;56321;47.662;8.878;2022-08-01T01:54:44;5.63;;;2.10;;
69207;SDS011;56321;47.662;8.878;2022-08-01T01:57:12;5.30;;;1.77;;
69207;SDS011;56321;47.662;8.878;2022-08-01T01:59:40;5.93;;;2.20;;
69207;SDS011;56321;47.662;8.878;2022-08-01T02:02:07;5.30;;;2.00;;
69207;SDS011;56321;47.662;8.878;2022-08-01T02:04:35;6.53;;;2.03;;
69207;SDS011;56321;47.662;8.878;2022-08-01T02:07:03;6.07;;;1.98;;
69207;SDS011;56321;47.662;8.878;2022-08-01T02:09:30;6.25;;;1.80;;
69207;SDS011;56321;47.662;8.878;2022-08-01T02:11:58;6.72;;;2.03;;
69207;SDS011;56321;47.662;8.878;2022-08-01T02:14:25;5.97;;;1.70;;
69207;SDS011;56321;47.662;8.878;2022-08-01T02:16:52;6.18;;;1.90;;
69207;SDS011;56321;47.662;8.878;2022-08-01T02:19:21;6.05;;;1.85;;
69207;SDS011;56321;47.662;8.878;2022-08-01T02:24:24;5.57;;;1.70;;
69207;SDS011;56321;47.662;8.878;2022-08-01T02:27:14;5.75;;;1.70;;
69207;SDS011;56321;47.662;8.878;2022-08-01T02:29:43;4.93;;;1.65;;
69207;SDS011;56321;47.662;8.878;2022-08-01T02:32:16;5.97;;;1.80;;
69207;SDS011;56321;47.662;8.878;2022-08-01T02:34:48;4.80;;;1.65;;
69207;SDS011;56321;47.662;8.878;2022-08-01T02:37:15;5.53;;;1.63;;
69207;SDS011;56321;47.662;8.878;2022-08-01T02:39:42;5.50;;;1.90;;
69207;SDS011;56321;47.662;8.878;2022-08-01T02:42:11;5.70;;;1.85;;
69207;SDS011;56321;47.662;8.878;2022-08-01T02:44:39;5.37;;;1.80;;
69207;SDS011;56321;47.662;8.878;2022-08-01T02:47:09;5.28;;;1.80;;
69207;SDS011;56321;47.662;8.878;2022-08-01T02:49:36;6.15;;;1.83;;
69207;SDS011;56321;47.662;8.878;2022-08-01T02:52:06;6.53;;;1.88;;
69207;SDS011;56321;47.662;8.878;2022-08-01T02:54:33;5.20;;;1.90;;
69207;SDS011;56321;47.662;8.878;2022-08-01T02:57:00;6.53;;;2.00;;
69207;SDS011;56321;47.662;8.878;2022-08-01T02:59:28;5.43;;;1.85;;
69207;SDS011;56321;47.662;8.878;2022-08-01T03:01:56;5.10;;;1.98;;
69207;SDS011;56321;47.662;8.878;2022-08-01T03:04:24;4.90;;;1.90;;
69207;SDS011;56321;47.662;8.878;2022-08-01T03:06:51;6.18;;;1.98;;
69207;SDS011;56321;47.662;8.878;2022-08-01T03:09:17;6.07;;;2.00;;
69207;SDS011;56321;47.662;8.878;2022-08-01T03:11:44;5.65;;;2.10;;
69207;SDS011;56321;47.662;8.878;2022-08-01T03:14:11;5.55;;;1.80;;
69207;SDS011;56321;47.662;8.878;2022-08-01T03:16:38;6.07;;;2.00;;
69207;SDS011;56321;47.662;8.878;2022-08-01T03:19:05;5.60;;;2.00;;
69207;SDS011;56321;47.662;8.878;2022-08-01T03:21:33;5.38;;;1.92;;
69207;SDS011;56321;47.662;8.878;2022-08-01T03:24:00;5.55;;;2.00;;
69207;SDS011;56321;47.662;8.878;2022-08-01T03:26:30;5.28;;;1.88;;
69207;SDS011;56321;47.662;8.878;2022-08-01T03:28:59;5.00;;;1.90;;
69207;SDS011;56321;47.662;8.878;2022-08-01T03:31:31;5.97;;;2.10;;
69207;SDS011;56321;47.662;8.878;2022-08-01T03:33:59;6.55;;;2.13;;
69207;SDS011;56321;47.662;8.878;2022-08-01T03:36:25;5.40;;;1.97;;
69207;SDS011;56321;47.662;8.878;2022-08-01T03:38:53;5.55;;;2.35;;
69207;SDS011;56321;47.662;8.878;2022-08-01T03:41:22;5.65;;;1.85;;
69207;SDS011;56321;47.662;8.878;2022-08-01T03:44:36;5.88;;;1.95;;
69207;SDS011;56321;47.662;8.878;2022-08-01T03:46:45;6.47;;;2.00;;
69207;SDS011;56321;47.662;8.878;2022-08-01T03:49:22;5.77;;;2.00;;
69207;SDS011;56321;47.662;8.878;2022-08-01T03:51:50;6.15;;;2.00;;
69207;SDS011;56321;47.662;8.878;2022-08-01T03:54:24;5.30;;;2.00;;
69207;SDS011;56321;47.662;8.878;2022-08-01T03:56:54;5.15;;;1.95;;
69207;SDS011;56321;47.662;8.878;2022-08-01T03:59:21;5.45;;;1.83;;
69207;SDS011;56321;47.662;8.878;2022-08-01T04:01:46;5.90;;;1.80;;
69207;SDS011;56321;47.662;8.878;2022-08-01T04:04:12;5.53;;;2.00;;
69207;SDS011;56321;47.662;8.878;2022-08-01T04:06:39;6.38;;;2.22;;
69207;SDS011;56321;47.662;8.878;2022-08-01T04:09:06;5.40;;;1.70;;
69207;SDS011;56321;47.662;8.878;2022-08-01T04:11:32;5.70;;;1.85;;
69207;SDS011;56321;47.662;8.878;2022-08-01T04:13:58;5.57;;;2.00;;
69207;SDS011;56321;47.662;8.878;2022-08-01T04:16:23;6.20;;;2.00;;
69207;SDS011;56321;47.662;8.878;2022-08-01T04:18:49;5.80;;;1.87;;
69207;SDS011;56321;47.662;8.878;2022-08-01T04:21:14;6.05;;;2.10;;
69207;SDS011;56321;47.662;8.878;2022-08-01T04:23:43;6.37;;;2.20;;
69207;SDS011;56321;47.662;8.878;2022-08-01T04:26:11;6.82;;;2.28;;
69207;SDS011;56321;47.662;8.878;2022-08-01T04:28:39;5.95;;;1.90;;
69207;SDS011;56321;47.662;8.878;2022-08-01T04:31:06;5.63;;;2.00;;
69207;SDS011;56321;47.662;8.878;2022-08-01T04:33:37;6.07;;;1.90;;
69207;SDS011;56321;47.662;8.878;2022-08-01T04:36:05;5.90;;;2.00;;
69207;SDS011;56321;47.662;8.878;2022-08-01T04:38:32;6.03;;;2.20;;
69207;SDS011;56321;47.662;8.878;2022-08-01T04:41:02;6.38;;;1.85;;
69207;SDS011;56321;47.662;8.878;2022-08-01T04:43:28;5.43;;;1.90;;
69207;SDS011;56321;47.662;8.878;2022-08-01T04:45:53;5.53;;;2.10;;
69207;SDS011;56321;47.662;8.878;2022-08-01T04:48:20;6.45;;;2.10;;
69207;SDS011;56321;47.662;8.878;2022-08-01T04:50:47;6.00;;;2.15;;
69207;SDS011;56321;47.662;8.878;2022-08-01T04:53:19;5.40;;;2.00;;
69207;SDS011;56321;47.662;8.878;2022-08-01T04:55:46;6.47;;;2.30;;
69207;SDS011;56321;47.662;8.878;2022-08-01T04:58:12;8.03;;;2.20;;
69207;SDS011;56321;47.662;8.878;2022-08-01T05:00:42;6.15;;;2.00;;
69207;SDS011;56321;47.662;8.878;2022-08-01T05:03:07;6.90;;;2.30;;
69207;SDS011;56321;47.662;8.878;2022-08-01T05:05:33;6.10;;;2.30;;
69207;SDS011;56321;47.662;8.878;2022-08-01T05:08:00;5.95;;;2.50;;
69207;SDS011;56321;47.662;8.878;2022-08-01T05:10:26;6.50;;;2.60;;
69207;SDS011;56321;47.662;8.878;2022-08-01T05:12:51;5.50;;;2.60;;
69207;SDS011;56321;47.662;8.878;2022-08-01T05:15:17;5.80;;;2.53;;
69207;SDS011;56321;47.662;8.878;2022-08-01T05:17:42;6.10;;;2.60;;
69207;SDS011;56321;47.662;8.878;2022-08-01T05:20:08;8.07;;;2.40;;
69207;SDS011;56321;47.662;8.878;2022-08-01T05:22:34;6.15;;;2.30;;
69207;SDS011;56321;47.662;8.878;2022-08-01T05:24:59;5.70;;;2.40;;
69207;SDS011;56321;47.662;8.878;2022-08-01T05:27:25;6.03;;;2.47;;
69207;SDS011;56321;47.662;8.878;2022-08-01T05:29:50;5.55;;;2.40;;
69207;SDS011;56321;47.662;8.878;2022-08-01T05:32:16;5.70;;;2.27;;
69207;SDS011;56321;47.662;8.878;2022-08-01T05:34:41;6.23;;;2.53;;
69207;SDS011;56321;47.662;8.878;2022-08-01T05:37:07;5.90;;;2.50;;
69207;SDS011;56321;47.662;8.878;2022-08-01T05:39:32;6.33;;;2.60;;
69207;SDS011;56321;47.662;8.878;2022-08-01T05:41:58;6.47;;;2.77;;
69207;SDS011;56321;47.662;8.878;2022-08-01T05:44:23;5.97;;;2.50;;
69207;SDS011;56321;47.662;8.878;2022-08-01T05:46:48;6.00;;;2.40;;
69207;SDS011;56321;47.662;8.878;2022-08-01T05:49:14;6.77;;;2.60;;
69207;SDS011;56321;47.662;8.878;2022-08-01T05:51:39;6.30;;;2.43;;
69207;SDS011;56321;47.662;8.878;2022-08-01T05:54:05;5.47;;;2.50;;
69207;SDS011;56321;47.662;8.878;2022-08-01T05:56:30;6.60;;;2.53;;
69207;SDS011;56321;47.662;8.878;2022-08-01T05:58:55;6.10;;;2.43;;
69207;SDS011;56321;47.662;8.878;2022-08-01T06:01:21;6.60;;;2.80;;
69207;SDS011;56321;47.662;8.878;2022-08-01T06:03:46;5.93;;;2.90;;
69207;SDS011;56321;47.662;8.878;2022-08-01T06:06:12;6.00;;;2.65;;
69207;SDS011;56321;47.662;8.878;2022-08-01T06:08:38;5.73;;;2.60;;
69207;SDS011;56321;47.662;8.878;2022-08-01T06:11:04;5.82;;;2.72;;
69207;SDS011;56321;47.662;8.878;2022-08-01T06:13:30;6.20;;;2.77;;
69207;SDS011;56321;47.662;8.878;2022-08-01T06:15:55;6.17;;;2.70;;
69207;SDS011;56321;47.662;8.878;2022-08-01T06:18:20;6.78;;;2.88;;
69207;SDS011;56321;47.662;8.878;2022-08-01T06:20:46;7.10;;;2.90;;
69207;SDS011;56321;47.662;8.878;2022-08-01T06:23:12;5.90;;;2.73;;
69207;SDS011;56321;47.662;8.878;2022-08-01T06:25:38;6.28;;;2.55;;
69207;SDS011;56321;47.662;8.878;2022-08-01T06:28:03;6.57;;;2.60;;
69207;SDS011;56321;47.662;8.878;2022-08-01T06:30:29;6.63;;;2.70;;
69207;SDS011;56321;47.662;8.878;2022-08-01T06:32:54;6.80;;;2.67;;
69207;SDS011;56321;47.662;8.878;2022-08-01T06:35:23;6.00;;;2.50;;
69207;SDS011;56321;47.662;8.878;2022-08-01T06:37:49;6.00;;;2.33;;
69207;SDS011;56321;47.662;8.878;2022-08-01T06:40:14;5.80;;;2.70;;
69207;SDS011;56321;47.662;8.878;2022-08-01T06:42:40;6.43;;;2.70;;
69207;SDS011;56321;47.662;8.878;2022-08-01T06:45:06;5.72;;;2.58;;
69207;SDS011;56321;47.662;8.878;2022-08-01T06:47:34;6.18;;;2.58;;
69207;SDS011;56321;47.662;8.878;2022-08-01T06:50:00;5.90;;;2.60;;
69207;SDS011;56321;47.662;8.878;2022-08-01T06:52:25;6.20;;;2.73;;
69207;SDS011;56321;47.662;8.878;2022-08-01T06:54:50;5.65;;;2.53;;
69207;SDS011;56321;47.662;8.878;2022-08-01T06:57:16;6.33;;;2.80;;
69207;SDS011;56321;47.662;8.878;2022-08-01T06:59:41;7.07;;;2.63;;
69207;SDS011;56321;47.662;8.878;2022-08-01T07:02:07;6.80;;;2.80;;
69207;SDS011;56321;47.662;8.878;2022-08-01T07:04:32;6.10;;;2.50;;
69207;SDS011;56321;47.662;8.878;2022-08-01T07:06:58;5.93;;;2.67;;
69207;SDS011;56321;47.662;8.878;2022-08-01T07:09:24;6.50;;;2.87;;
69207;SDS011;56321;47.662;8.878;2022-08-01T07:11:50;6.78;;;2.95;;
69207;SDS011;56321;47.662;8.878;2022-08-01T07:14:17;6.57;;;3.25;;
69207;SDS011;56321;47.662;8.878;2022-08-01T07:16:43;6.63;;;3.30;;
69207;SDS011;56321;47.662;8.878;2022-08-01T07:19:08;7.33;;;3.37;;
69207;SDS011;56321;47.662;8.878;2022-08-01T07:21:33;6.23;;;2.90;;
69207;SDS011;56321;47.662;8.878;2022-08-01T07:23:59;6.90;;;3.10;;
69207;SDS011;56321;47.662;8.878;2022-08-01T07:26:25;6.93;;;3.17;;
69207;SDS011;56321;47.662;8.878;2022-08-01T07:28:51;6.68;;;3.25;;
69207;SDS011;56321;47.662;8.878;2022-08-01T07:31:16;8.90;;;3.20;;
69207;SDS011;56321;47.662;8.878;2022-08-01T07:33:42;6.90;;;3.00;;
69207;SDS011;56321;47.662;8.878;2022-08-01T07:36:07;6.77;;;3.30;;
69207;SDS011;56321;47.662;8.878;2022-08-01T07:38:32;6.10;;;3.27;;
69207;SDS011;56321;47.662;8.878;2022-08-01T07:40:58;6.70;;;3.40;;
69207;SDS011;56321;47.662;8.878;2022-08-01T07:43:23;6.33;;;3.33;;
69207;SDS011;56321;47.662;8.878;2022-08-01T07:45:48;6.90;;;3.40;;
69207;SDS011;56321;47.662;8.878;2022-08-01T07:48:14;8.02;;;3.10;;
69207;SDS011;56321;47.662;8.878;2022-08-01T07:50:39;6.57;;;3.23;;
69207;SDS011;56321;47.662;8.878;2022-08-01T07:53:04;6.30;;;3.33;;
69207;SDS011;56321;47.662;8.878;2022-08-01T07:55:30;7.10;;;3.30;;
69207;SDS011;56321;47.662;8.878;2022-08-01T07:57:55;7.47;;;3.67;;
69207;SDS011;56321;47.662;8.878;2022-08-01T08:00:20;6.45;;;3.40;;
69207;SDS011;56321;47.662;8.878;2022-08-01T08:02:46;7.03;;;3.50;;
69207;SDS011;56321;47.662;8.878;2022-08-01T08:05:11;6.90;;;3.47;;
69207;SDS011;56321;47.662;8.878;2022-08-01T08:07:37;7.67;;;3.50;;
69207;SDS011;56321;47.662;8.878;2022-08-01T08:10:03;7.88;;;3.72;;
69207;SDS011;56321;47.662;8.878;2022-08-01T08:12:30;6.93;;;3.30;;
69207;SDS011;56321;47.662;8.878;2022-08-01T08:14:55;7.80;;;4.50;;
69207;SDS011;56321;47.662;8.878;2022-08-01T08:17:23;6.75;;;3.40;;
69207;SDS011;56321;47.662;8.878;2022-08-01T08:19:49;6.80;;;3.08;;
69207;SDS011;56321;47.662;8.878;2022-08-01T08:22:14;6.90;;;3.20;;
69207;SDS011;56321;47.662;8.878;2022-08-01T08:24:40;6.20;;;3.20;;
69207;SDS011;56321;47.662;8.878;2022-08-01T08:27:05;6.10;;;3.13;;
69207;SDS011;56321;47.662;8.878;2022-08-01T08:29:32;7.13;;;3.30;;
69207;SDS011;56321;47.662;8.878;2022-08-01T08:31:58;6.13;;;3.07;;
69207;SDS011;56321;47.662;8.878;2022-08-01T08:34:25;6.47;;;3.10;;
69207;SDS011;56321;47.662;8.878;2022-08-01T08:36:51;7.10;;;2.97;;
69207;SDS011;56321;47.662;8.878;2022-08-01T08:39:17;6.57;;;3.33;;
69207;SDS011;56321;47.662;8.878;2022-08-01T08:41:42;6.07;;;3.10;;
69207;SDS011;56321;47.662;8.878;2022-08-01T08:44:08;6.63;;;3.00;;
69207;SDS011;56321;47.662;8.878;2022-08-01T08:46:38;6.68;;;3.30;;
69207;SDS011;56321;47.662;8.878;2022-08-01T08:49:08;6.65;;;3.05;;
69207;SDS011;56321;47.662;8.878;2022-08-01T08:51:34;6.68;;;3.28;;
69207;SDS011;56321;47.662;8.878;2022-08-01T08:54:03;6.63;;;3.00;;
69207;SDS011;56321;47.662;8.878;2022-08-01T08:56:30;7.88;;;3.53;;
69207;SDS011;56321;47.662;8.878;2022-08-01T08:58:59;6.07;;;3.20;;
69207;SDS011;56321;47.662;8.878;2022-08-01T09:01:25;6.32;;;3.40;;
69207;SDS011;56321;47.662;8.878;2022-08-01T09:03:51;6.63;;;3.40;;
69207;SDS011;56321;47.662;8.878;2022-08-01T09:06:16;6.78;;;3.30;;
69207;SDS011;56321;47.662;8.878;2022-08-01T09:08:42;6.80;;;3.17;;
69207;SDS011;56321;47.662;8.878;2022-08-01T09:11:07;5.83;;;3.00;;
69207;SDS011;56321;47.662;8.878;2022-08-01T09:13:32;7.00;;;3.27;;
69207;SDS011;56321;47.662;8.878;2022-08-01T09:15:58;7.10;;;3.10;;
69207;SDS011;56321;47.662;8.878;2022-08-01T09:18:28;6.60;;;3.10;;
69207;SDS011;56321;47.662;8.878;2022-08-01T09:23:53;6.32;;;3.38;;
69207;SDS011;56321;47.662;8.878;2022-08-01T09:26:30;6.95;;;2.63;;
69207;SDS011;56321;47.662;8.878;2022-08-01T09:28:58;7.03;;;2.80;;
69207;SDS011;56321;47.662;8.878;2022-08-01T09:31:27;6.45;;;2.90;;
69207;SDS011;56321;47.662;8.878;2022-08-01T09:33:55;5.95;;;3.13;;
69207;SDS011;56321;47.662;8.878;2022-08-01T09:36:26;6.57;;;3.22;;
69207;SDS011;56321;47.662;8.878;2022-08-01T09:39:11;6.43;;;3.10;;
69207;SDS011;56321;47.662;8.878;2022-08-01T09:41:38;6.97;;;2.93;;
69207;SDS011;56321;47.662;8.878;2022-08-01T09:44:03;6.13;;;2.90;;
69207;SDS011;56321;47.662;8.878;2022-08-01T09:46:28;5.90;;;3.07;;
69207;SDS011;56321;47.662;8.878;2022-08-01T09:48:59;5.47;;;2.58;;
69207;SDS011;56321;47.662;8.878;2022-08-01T09:51:29;6.00;;;2.80;;
69207;SDS011;56321;47.662;8.878;2022-08-01T09:53:56;5.97;;;2.80;;
69207;SDS011;56321;47.662;8.878;2022-08-01T09:56:22;5.13;;;2.55;;
69207;SDS011;56321;47.662;8.878;2022-08-01T09:58:58;5.63;;;2.90;;
69207;SDS011;56321;47.662;8.878;2022-08-01T10:01:24;5.95;;;2.60;;
69207;SDS011;56321;47.662;8.878;2022-08-01T10:06:42;5.75;;;2.70;;
69207;SDS011;56321;47.662;8.878;2022-08-01T10:09:09;6.17;;;2.73;;
69207;SDS011;56321;47.662;8.878;2022-08-01T10:11:36;5.32;;;2.50;;
69207;SDS011;56321;47.662;8.878;2022-08-01T10:14:04;6.57;;;2.72;;
69207;SDS011;56321;47.662;8.878;2022-08-01T10:16:30;5.97;;;2.40;;
69207;SDS011;56321;47.662;8.878;2022-08-01T10:18:58;6.90;;;2.47;;
69207;SDS011;56321;47.662;8.878;2022-08-01T10:21:24;5.70;;;2.40;;
69207;SDS011;56321;47.662;8.878;2022-08-01T10:23:52;6.18;;;2.78;;
69207;SDS011;56321;47.662;8.878;2022-08-01T10:26:19;5.93;;;2.40;;
69207;SDS011;56321;47.662;8.878;2022-08-01T10:28:45;5.10;;;2.60;;
69207;SDS011;56321;47.662;8.878;2022-08-01T10:31:13;5.25;;;2.30;;
69207;SDS011;56321;47.662;8.878;2022-08-01T10:33:39;5.22;;;2.20;;
69207;SDS011;56321;47.662;8.878;2022-08-01T10:36:06;5.97;;;2.30;;
69207;SDS011;56321;47.662;8.878;2022-08-01T10:38:32;5.00;;;2.20;;
69207;SDS011;56321;47.662;8.878;2022-08-01T10:40:58;6.35;;;2.40;;
69207;SDS011;56321;47.662;8.878;2022-08-01T10:43:27;4.90;;;2.25;;
69207;SDS011;56321;47.662;8.878;2022-08-01T10:45:52;4.90;;;2.40;;
69207;SDS011;56321;47.662;8.878;2022-08-01T10:49:04;5.33;;;2.43;;
69207;SDS011;56321;47.662;8.878;2022-08-01T10:51:14;6.25;;;2.35;;
69207;SDS011;56321;47.662;8.878;2022-08-01T10:53:46;5.50;;;2.38;;
69207;SDS011;56321;47.662;8.878;2022-08-01T10:56:12;5.80;;;2.40;;
69207;SDS011;56321;47.662;8.878;2022-08-01T10:58:39;5.50;;;2.50;;
69207;SDS011;56321;47.662;8.878;2022-08-01T11:03:57;5.32;;;2.50;;
69207;SDS011;56321;47.662;8.878;2022-08-01T11:06:43;5.20;;;2.35;;
69207;SDS011;56321;47.662;8.878;2022-08-01T11:11:56;5.38;;;2.33;;
69207;SDS011;56321;47.662;8.878;2022-08-01T11:14:21;5.72;;;2.38;;
69207;SDS011;56321;47.662;8.878;2022-08-01T11:16:47;5.00;;;2.30;;
69207;SDS011;56321;47.662;8.878;2022-08-01T11:19:12;5.07;;;2.40;;
69207;SDS011;56321;47.662;8.878;2022-08-01T11:27:19;5.40;;;2.70;;
69207;SDS011;56321;47.662;8.878;2022-08-01T11:32:44;4.90;;;2.00;;
69207;SDS011;56321;47.662;8.878;2022-08-01T11:35:23;6.07;;;2.10;;
69207;SDS011;56321;47.662;8.878;2022-08-01T11:37:51;4.65;;;2.08;;
69207;SDS011;56321;47.662;8.878;2022-08-01T11:40:26;4.70;;;2.08;;
69207;SDS011;56321;47.662;8.878;2022-08-01T11:45:50;5.07;;;2.20;;
69207;SDS011;56321;47.662;8.878;2022-08-01T11:48:23;4.85;;;1.95;;
69207;SDS011;56321;47.662;8.878;2022-08-01T11:50:51;4.80;;;1.85;;
69207;SDS011;56321;47.662;8.878;2022-08-01T11:53:18;5.07;;;2.33;;
69207;SDS011;56321;47.662;8.878;2022-08-01T11:58:16;4.97;;;2.23;;
69207;SDS011;56321;47.662;8.878;2022-08-01T12:00:52;4.60;;;2.00;;
69207;SDS011;56321;47.662;8.878;2022-08-01T12:03:26;5.82;;;2.03;;
69207;SDS011;56321;47.662;8.878;2022-08-01T12:05:52;4.90;;;2.20;;
69207;SDS011;56321;47.662;8.878;2022-08-01T12:08:25;4.70;;;2.00;;
69207;SDS011;56321;47.662;8.878;2022-08-01T12:10:51;4.88;;;1.85;;
69207;SDS011;56321;47.662;8.878;2022-08-01T12:13:17;5.60;;;2.40;;
69207;SDS011;56321;47.662;8.878;2022-08-01T12:15:43;4.73;;;2.03;;
69207;SDS011;56321;47.662;8.878;2022-08-01T12:18:10;4.65;;;2.08;;
69207;SDS011;56321;47.662;8.878;2022-08-01T12:20:37;4.53;;;1.87;;
69207;SDS011;56321;47.662;8.878;2022-08-01T12:23:05;6.43;;;2.30;;
69207;SDS011;56321;47.662;8.878;2022-08-01T12:25:33;5.05;;;2.25;;
69207;SDS011;56321;47.662;8.878;2022-08-01T12:28:03;4.70;;;2.10;;
69207;SDS011;56321;47.662;8.878;2022-08-01T12:30:30;4.90;;;1.95;;
69207;SDS011;56321;47.662;8.878;2022-08-01T12:32:56;4.90;;;1.70;;
69207;SDS011;56321;47.662;8.878;2022-08-01T12:35:25;4.05;;;1.65;;
69207;SDS011;56321;47.662;8.878;2022-08-01T12:40:20;4.05;;;1.75;;
69207;SDS011;56321;47.662;8.878;2022-08-01T12:42:49;4.53;;;1.92;;
69207;SDS011;56321;47.662;8.878;2022-08-01T12:45:30;4.07;;;1.70;;
69207;SDS011;56321;47.662;8.878;2022-08-01T12:48:02;4.60;;;1.70;;
69207;SDS011;56321;47.662;8.878;2022-08-01T12:50:33;4.18;;;1.80;;
69207;SDS011;56321;47.662;8.878;2022-08-01T12:53:01;4.45;;;1.70;;
69207;SDS011;56321;47.662;8.878;2022-08-01T12:55:27;4.70;;;2.10;;
69207;SDS011;56321;47.662;8.878;2022-08-01T12:58:08;4.82;;;1.92;;
69207;SDS011;56321;47.662;8.878;2022-08-01T13:00:35;4.90;;;1.90;;
69207;SDS011;56321;47.662;8.878;2022-08-01T13:05:28;4.83;;;1.90;;
69207;SDS011;56321;47.662;8.878;2022-08-01T13:08:09;4.00;;;1.40;;
69207;SDS011;56321;47.662;8.878;2022-08-01T13:10:39;4.70;;;1.83;;
69207;SDS011;56321;47.662;8.878;2022-08-01T13:13:06;4.15;;;1.60;;
69207;SDS011;56321;47.662;8.878;2022-08-01T13:15:32;5.03;;;1.90;;
69207;SDS011;56321;47.662;8.878;2022-08-01T13:18:00;4.23;;;1.73;;
69207;SDS011;56321;47.662;8.878;2022-08-01T13:20:45;4.18;;;1.80;;
69207;SDS011;56321;47.662;8.878;2022-08-01T13:23:11;4.40;;;1.80;;
69207;SDS011;56321;47.662;8.878;2022-08-01T13:28:22;4.72;;;1.40;;
69207;SDS011;56321;47.662;8.878;2022-08-01T13:30:56;4.90;;;1.80;;
69207;SDS011;56321;47.662;8.878;2022-08-01T13:33:24;5.50;;;1.80;;
69207;SDS011;56321;47.662;8.878;2022-08-01T13:35:52;5.37;;;1.50;;
69207;SDS011;56321;47.662;8.878;2022-08-01T13:38:18;4.30;;;1.80;;
69207;SDS011;56321;47.662;8.878;2022-08-01T13:40:43;3.77;;;1.60;;
69207;SDS011;56321;47.662;8.878;2022-08-01T13:43:09;5.33;;;1.73;;
69207;SDS011;56321;47.662;8.878;2022-08-01T13:45:34;5.30;;;1.27;;
69207;SDS011;56321;47.662;8.878;2022-08-01T13:48:00;4.20;;;1.30;;
69207;SDS011;56321;47.662;8.878;2022-08-01T13:50:25;4.97;;;1.40;;
69207;SDS011;56321;47.662;8.878;2022-08-01T13:52:51;4.03;;;1.33;;
69207;SDS011;56321;47.662;8.878;2022-08-01T13:55:16;4.20;;;1.30;;
69207;SDS011;56321;47.662;8.878;2022-08-01T13:57:41;4.23;;;1.10;;
69207;SDS011;56321;47.662;8.878;2022-08-01T14:00:07;3.47;;;1.30;;
69207;SDS011;56321;47.662;8.878;2022-08-01T14:02:35;3.63;;;1.20;;
69207;SDS011;56321;47.662;8.878;2022-08-01T14:05:01;3.55;;;1.20;;
69207;SDS011;56321;47.662;8.878;2022-08-01T14:07:26;3.87;;;1.40;;
69207;SDS011;56321;47.662;8.878;2022-08-01T14:09:52;3.85;;;1.10;;
69207;SDS011;56321;47.662;8.878;2022-08-01T14:12:18;4.57;;;1.50;;
69207;SDS011;56321;47.662;8.878;2022-08-01T14:14:43;3.50;;;1.30;;
69207;SDS011;56321;47.662;8.878;2022-08-01T14:17:08;3.15;;;1.00;;
69207;SDS011;56321;47.662;8.878;2022-08-01T14:19:34;4.47;;;1.00;;
69207;SDS011;56321;47.662;8.878;2022-08-01T14:21:59;3.30;;;1.20;;
69207;SDS011;56321;47.662;8.878;2022-08-01T14:24:24;4.37;;;1.13;;
69207;SDS011;56321;47.662;8.878;2022-08-01T14:26:51;5.30;;;1.40;;
69207;SDS011;56321;47.662;8.878;2022-08-01T14:29:16;3.63;;;1.20;;
69207;SDS011;56321;47.662;8.878;2022-08-01T14:31:42;3.47;;;1.30;;
69207;SDS011;56321;47.662;8.878;2022-08-01T14:34:07;3.23;;;1.00;;
69207;SDS011;56321;47.662;8.878;2022-08-01T14:36:33;3.57;;;1.20;;
69207;SDS011;56321;47.662;8.878;2022-08-01T14:38:59;3.17;;;1.20;;
69207;SDS011;56321;47.662;8.878;2022-08-01T14:41:24;4.47;;;1.17;;
69207;SDS011;56321;47.662;8.878;2022-08-01T14:43:49;3.37;;;1.00;;
69207;SDS011;56321;47.662;8.878;2022-08-01T14:46:15;3.80;;;1.20;;
69207;SDS011;56321;47.662;8.878;2022-08-01T14:48:41;3.37;;;1.30;;
69207;SDS011;56321;47.662;8.878;2022-08-01T14:51:06;3.42;;;1.30;;
69207;SDS011;56321;47.662;8.878;2022-08-01T14:53:32;3.37;;;1.10;;
69207;SDS011;56321;47.662;8.878;2022-08-01T14:56:00;3.15;;;1.05;;
69207;SDS011;56321;47.662;8.878;2022-08-01T14:58:25;3.65;;;1.10;;
69207;SDS011;56321;47.662;8.878;2022-08-01T15:00:51;2.50;;;0.90;;
69207;SDS011;56321;47.662;8.878;2022-08-01T15:03:19;2.90;;;1.10;;
69207;SDS011;56321;47.662;8.878;2022-08-01T15:05:45;2.95;;;0.90;;
69207;SDS011;56321;47.662;8.878;2022-08-01T15:08:10;4.00;;;1.00;;
69207;SDS011;56321;47.662;8.878;2022-08-01T15:10:35;3.23;;;1.00;;
69207;SDS011;56321;47.662;8.878;2022-08-01T15:13:01;2.43;;;0.90;;
69207;SDS011;56321;47.662;8.878;2022-08-01T15:15:27;2.80;;;0.90;;
69207;SDS011;56321;47.662;8.878;2022-08-01T15:17:52;3.10;;;0.80;;
69207;SDS011;56321;47.662;8.878;2022-08-01T15:20:18;2.13;;;0.70;;
69207;SDS011;56321;47.662;8.878;2022-08-01T15:22:44;3.07;;;0.93;;
69207;SDS011;56321;47.662;8.878;2022-08-01T15:25:09;3.88;;;1.10;;
69207;SDS011;56321;47.662;8.878;2022-08-01T15:27:35;4.67;;;1.23;;